sensor_id;sensor_type;location;lat;lon;timestamp;pressure;altitude;pressure_sealevel;temperature;humidity
84245;BME280;74383;44.552;18.100;2024-02-21T00:00:46;100599.00;;;7.14;77.29
84245;BME280;74383;44.552;18.100;2024-02-21T00:03:12;100592.41;;;7.18;77.08
84245;BME280;74383;44.552;18.100;2024-02-21T00:05:37;100597.81;;;7.24;76.44
84245;BME280;74383;44.552;18.100;2024-02-21T00:08:03;100590.88;;;7.32;76.26
84245;BME280;74383;44.552;18.100;2024-02-21T00:10:29;100594.97;;;7.34;76.01
84245;BME280;74383;44.552;18.100;2024-02-21T00:12:57;100597.47;;;7.36;75.98
84245;BME280;74383;44.552;18.100;2024-02-21T00:15:22;100594.50;;;7.39;75.61
84245;BME280;74383;44.552;18.100;2024-02-21T00:17:48;100590.53;;;7.35;75.71
84245;BME280;74383;44.552;18.100;2024-02-21T00:20:14;100591.06;;;7.30;75.99
84245;BME280;74383;44.552;18.100;2024-02-21T00:22:39;100589.53;;;7.36;75.97
84245;BME280;74383;44.552;18.100;2024-02-21T00:25:05;100582.66;;;7.26;76.37
84245;BME280;74383;44.552;18.100;2024-02-21T00:27:31;100592.03;;;7.29;76.41
84245;BME280;74383;44.552;18.100;2024-02-21T00:29:57;100582.78;;;7.33;76.06
84245;BME280;74383;44.552;18.100;2024-02-21T00:32:23;100584.59;;;7.33;76.17
84245;BME280;74383;44.552;18.100;2024-02-21T00:34:48;100580.34;;;7.23;76.95
84245;BME280;74383;44.552;18.100;2024-02-21T00:37:14;100581.63;;;7.27;76.68
84245;BME280;74383;44.552;18.100;2024-02-21T00:39:40;100583.47;;;7.27;76.99
84245;BME280;74383;44.552;18.100;2024-02-21T00:42:05;100581.19;;;7.24;77.16
84245;BME280;74383;44.552;18.100;2024-02-21T00:44:32;100573.09;;;7.17;77.15
84245;BME280;74383;44.552;18.100;2024-02-21T00:46:58;100574.91;;;7.17;77.08
84245;BME280;74383;44.552;18.100;2024-02-21T00:49:23;100575.06;;;7.23;77.09
84245;BME280;74383;44.552;18.100;2024-02-21T00:51:49;100575.56;;;7.27;76.66
84245;BME280;74383;44.552;18.100;2024-02-21T00:54:15;100581.97;;;7.24;76.31
84245;BME280;74383;44.552;18.100;2024-02-21T00:56:41;100588.75;;;7.19;77.03
84245;BME280;74383;44.552;18.100;2024-02-21T00:59:07;100586.00;;;7.12;77.33
84245;BME280;74383;44.552;18.100;2024-02-21T01:01:32;100593.78;;;7.06;77.21
84245;BME280;74383;44.552;18.100;2024-02-21T01:03:58;100592.97;;;6.89;77.88
84245;BME280;74383;44.552;18.100;2024-02-21T01:06:23;100590.34;;;6.81;77.98
84245;BME280;74383;44.552;18.100;2024-02-21T01:08:49;100583.56;;;6.95;77.40
84245;BME280;74383;44.552;18.100;2024-02-21T01:11:15;100579.91;;;7.04;76.68
84245;BME280;74383;44.552;18.100;2024-02-21T01:13:41;100584.84;;;7.07;76.81
84245;BME280;74383;44.552;18.100;2024-02-21T01:16:07;100574.44;;;7.13;76.57
84245;BME280;74383;44.552;18.100;2024-02-21T01:18:34;100569.16;;;7.13;75.78
84245;BME280;74383;44.552;18.100;2024-02-21T01:20:59;100579.38;;;7.16;75.76
84245;BME280;74383;44.552;18.100;2024-02-21T01:23:25;100568.81;;;7.16;76.02
84245;BME280;74383;44.552;18.100;2024-02-21T01:25:51;100575.53;;;6.72;77.42
84245;BME280;74383;44.552;18.100;2024-02-21T01:28:18;100568.56;;;6.87;77.90
84245;BME280;74383;44.552;18.100;2024-02-21T01:30:43;100568.53;;;7.03;77.15
84245;BME280;74383;44.552;18.100;2024-02-21T01:33:09;100571.31;;;7.10;77.48
84245;BME280;74383;44.552;18.100;2024-02-21T01:35:35;100572.91;;;7.19;76.69
84245;BME280;74383;44.552;18.100;2024-02-21T01:38:01;100567.78;;;7.25;76.47
84245;BME280;74383;44.552;18.100;2024-02-21T01:40:27;100564.81;;;7.28;76.32
84245;BME280;74383;44.552;18.100;2024-02-21T01:42:55;100561.66;;;7.33;76.28
84245;BME280;74383;44.552;18.100;2024-02-21T01:45:21;100563.97;;;7.36;75.84
84245;BME280;74383;44.552;18.100;2024-02-21T01:47:47;100555.72;;;7.31;76.14
84245;BME280;74383;44.552;18.100;2024-02-21T01:50:14;100558.88;;;7.26;76.29
84245;BME280;74383;44.552;18.100;2024-02-21T01:52:42;100563.19;;;7.19;76.48
84245;BME280;74383;44.552;18.100;2024-02-21T01:55:10;100548.47;;;7.25;76.52
84245;BME280;74383;44.552;18.100;2024-02-21T01:57:40;100551.59;;;7.28;76.35
84245;BME280;74383;44.552;18.100;2024-02-21T02:00:07;100551.25;;;7.32;75.96
84245;BME280;74383;44.552;18.100;2024-02-21T02:02:37;100559.72;;;7.27;75.85
84245;BME280;74383;44.552;18.100;2024-02-21T02:05:04;100562.84;;;7.22;75.98
84245;BME280;74383;44.552;18.100;2024-02-21T02:07:31;100563.59;;;7.00;76.89
84245;BME280;74383;44.552;18.100;2024-02-21T02:09:57;100563.25;;;7.03;77.10
84245;BME280;74383;44.552;18.100;2024-02-21T02:12:22;100562.25;;;7.12;76.58
84245;BME280;74383;44.552;18.100;2024-02-21T02:15:02;100576.56;;;7.18;76.21
84245;BME280;74383;44.552;18.100;2024-02-21T02:17:31;100571.50;;;7.08;76.62
84245;BME280;74383;44.552;18.100;2024-02-21T02:19:57;100569.38;;;6.96;76.95
84245;BME280;74383;44.552;18.100;2024-02-21T02:22:27;100571.81;;;7.05;76.86
84245;BME280;74383;44.552;18.100;2024-02-21T02:24:54;100578.25;;;7.11;76.46
84245;BME280;74383;44.552;18.100;2024-02-21T02:27:20;100580.53;;;7.14;76.34
84245;BME280;74383;44.552;18.100;2024-02-21T02:29:45;100575.94;;;7.08;76.68
84245;BME280;74383;44.552;18.100;2024-02-21T02:32:12;100574.28;;;7.07;76.85
84245;BME280;74383;44.552;18.100;2024-02-21T02:34:37;100577.91;;;7.14;76.23
84245;BME280;74383;44.552;18.100;2024-02-21T02:37:03;100581.84;;;7.18;75.83
84245;BME280;74383;44.552;18.100;2024-02-21T02:39:28;100585.78;;;7.22;75.83
84245;BME280;74383;44.552;18.100;2024-02-21T02:41:54;100573.41;;;7.22;75.80
84245;BME280;74383;44.552;18.100;2024-02-21T02:44:19;100574.72;;;7.26;75.63
84245;BME280;74383;44.552;18.100;2024-02-21T02:46:45;100586.66;;;7.14;76.65
84245;BME280;74383;44.552;18.100;2024-02-21T02:49:10;100592.25;;;7.11;76.77
84245;BME280;74383;44.552;18.100;2024-02-21T02:51:36;100582.00;;;7.16;76.48
84245;BME280;74383;44.552;18.100;2024-02-21T02:54:02;100586.78;;;7.13;76.96
84245;BME280;74383;44.552;18.100;2024-02-21T02:56:28;100588.31;;;7.15;76.91
84245;BME280;74383;44.552;18.100;2024-02-21T02:58:54;100594.88;;;7.19;76.80
84245;BME280;74383;44.552;18.100;2024-02-21T03:01:19;100595.53;;;7.21;76.76
84245;BME280;74383;44.552;18.100;2024-02-21T03:03:45;100598.19;;;7.13;77.36
84245;BME280;74383;44.552;18.100;2024-02-21T03:06:12;100607.28;;;7.11;77.57
84245;BME280;74383;44.552;18.100;2024-02-21T03:08:38;100607.75;;;7.14;76.94
84245;BME280;74383;44.552;18.100;2024-02-21T03:11:05;100607.47;;;7.09;77.52
84245;BME280;74383;44.552;18.100;2024-02-21T03:13:30;100611.38;;;7.13;77.19
84245;BME280;74383;44.552;18.100;2024-02-21T03:15:56;100609.41;;;7.07;77.15
84245;BME280;74383;44.552;18.100;2024-02-21T03:18:21;100614.38;;;7.02;77.09
84245;BME280;74383;44.552;18.100;2024-02-21T03:20:47;100619.16;;;7.07;76.74
84245;BME280;74383;44.552;18.100;2024-02-21T03:23:13;100618.66;;;7.11;76.43
84245;BME280;74383;44.552;18.100;2024-02-21T03:25:38;100621.44;;;7.10;76.51
84245;BME280;74383;44.552;18.100;2024-02-21T03:28:04;100618.50;;;7.05;77.09
84245;BME280;74383;44.552;18.100;2024-02-21T03:30:30;100620.34;;;6.96;76.96
84245;BME280;74383;44.552;18.100;2024-02-21T03:32:55;100617.88;;;6.95;77.10
84245;BME280;74383;44.552;18.100;2024-02-21T03:35:21;100625.44;;;6.98;77.75
84245;BME280;74383;44.552;18.100;2024-02-21T03:37:47;100623.16;;;6.95;77.63
84245;BME280;74383;44.552;18.100;2024-02-21T03:40:12;100620.53;;;6.95;78.06
84245;BME280;74383;44.552;18.100;2024-02-21T03:42:38;100620.00;;;6.99;77.76
84245;BME280;74383;44.552;18.100;2024-02-21T03:45:04;100624.94;;;7.02;77.76
84245;BME280;74383;44.552;18.100;2024-02-21T03:47:30;100622.13;;;7.04;77.43
84245;BME280;74383;44.552;18.100;2024-02-21T03:49:55;100622.31;;;7.02;77.52
84245;BME280;74383;44.552;18.100;2024-02-21T03:52:21;100623.97;;;7.03;76.73
84245;BME280;74383;44.552;18.100;2024-02-21T03:54:46;100623.97;;;6.95;77.20
84245;BME280;74383;44.552;18.100;2024-02-21T03:57:13;100620.34;;;6.96;77.61
84245;BME280;74383;44.552;18.100;2024-02-21T03:59:38;100617.53;;;6.90;77.66
84245;BME280;74383;44.552;18.100;2024-02-21T04:02:05;100621.34;;;6.87;78.08
84245;BME280;74383;44.552;18.100;2024-02-21T04:04:35;100612.94;;;6.92;77.99
84245;BME280;74383;44.552;18.100;2024-02-21T04:07:03;100624.28;;;6.92;78.05
84245;BME280;74383;44.552;18.100;2024-02-21T04:09:32;100627.63;;;6.78;78.63
84245;BME280;74383;44.552;18.100;2024-02-21T04:12:01;100627.28;;;6.81;78.46
84245;BME280;74383;44.552;18.100;2024-02-21T04:14:26;100631.56;;;6.90;78.07
84245;BME280;74383;44.552;18.100;2024-02-21T04:16:52;100633.88;;;6.93;77.91
84245;BME280;74383;44.552;18.100;2024-02-21T04:19:17;100645.41;;;6.92;78.07
84245;BME280;74383;44.552;18.100;2024-02-21T04:21:43;100638.81;;;6.88;78.46
84245;BME280;74383;44.552;18.100;2024-02-21T04:24:10;100634.50;;;6.95;77.91
84245;BME280;74383;44.552;18.100;2024-02-21T04:26:35;100640.13;;;6.92;77.58
84245;BME280;74383;44.552;18.100;2024-02-21T04:29:01;100645.41;;;6.92;77.66
84245;BME280;74383;44.552;18.100;2024-02-21T04:31:26;100638.97;;;6.87;78.06
84245;BME280;74383;44.552;18.100;2024-02-21T04:33:52;100647.06;;;6.93;77.81
84245;BME280;74383;44.552;18.100;2024-02-21T04:36:17;100634.38;;;6.89;77.41
84245;BME280;74383;44.552;18.100;2024-02-21T04:38:43;100640.78;;;6.86;77.83
84245;BME280;74383;44.552;18.100;2024-02-21T04:41:08;100633.88;;;6.85;77.79
84245;BME280;74383;44.552;18.100;2024-02-21T04:43:34;100642.13;;;6.66;78.34
84245;BME280;74383;44.552;18.100;2024-02-21T04:46:00;100643.44;;;6.78;78.36
84245;BME280;74383;44.552;18.100;2024-02-21T04:48:26;100648.72;;;6.78;78.38
84245;BME280;74383;44.552;18.100;2024-02-21T04:50:51;100648.22;;;6.75;78.24
84245;BME280;74383;44.552;18.100;2024-02-21T04:53:17;100647.25;;;6.67;79.31
84245;BME280;74383;44.552;18.100;2024-02-21T04:55:43;100650.38;;;6.63;78.98
84245;BME280;74383;44.552;18.100;2024-02-21T04:58:09;100653.69;;;6.65;78.71
84245;BME280;74383;44.552;18.100;2024-02-21T05:00:35;100655.00;;;6.69;78.80
84245;BME280;74383;44.552;18.100;2024-02-21T05:03:00;100658.31;;;6.71;78.83
84245;BME280;74383;44.552;18.100;2024-02-21T05:05:26;100659.78;;;6.74;78.65
84245;BME280;74383;44.552;18.100;2024-02-21T05:07:51;100654.66;;;6.80;78.26
84245;BME280;74383;44.552;18.100;2024-02-21T05:10:17;100661.09;;;6.86;77.97
84245;BME280;74383;44.552;18.100;2024-02-21T05:12:44;100662.72;;;6.87;78.19
84245;BME280;74383;44.552;18.100;2024-02-21T05:15:10;100661.09;;;6.86;78.42
84245;BME280;74383;44.552;18.100;2024-02-21T05:17:35;100656.78;;;6.93;78.02
84245;BME280;74383;44.552;18.100;2024-02-21T05:20:01;100662.41;;;6.90;77.53
84245;BME280;74383;44.552;18.100;2024-02-21T05:22:27;100670.16;;;6.83;78.57
84245;BME280;74383;44.552;18.100;2024-02-21T05:24:52;100668.84;;;6.79;78.37
84245;BME280;74383;44.552;18.100;2024-02-21T05:27:18;100668.03;;;6.79;78.53
84245;BME280;74383;44.552;18.100;2024-02-21T05:29:43;100667.84;;;6.80;78.09
84245;BME280;74383;44.552;18.100;2024-02-21T05:32:09;100668.03;;;6.70;78.68
84245;BME280;74383;44.552;18.100;2024-02-21T05:34:35;100671.97;;;6.75;78.16
84245;BME280;74383;44.552;18.100;2024-02-21T05:37:00;100672.66;;;6.77;78.18
84245;BME280;74383;44.552;18.100;2024-02-21T05:39:26;100669.19;;;6.76;78.71
84245;BME280;74383;44.552;18.100;2024-02-21T05:41:53;100677.75;;;6.78;78.32
84245;BME280;74383;44.552;18.100;2024-02-21T05:44:19;100667.84;;;6.80;78.44
84245;BME280;74383;44.552;18.100;2024-02-21T05:46:46;100670.81;;;6.85;78.02
84245;BME280;74383;44.552;18.100;2024-02-21T05:49:11;100674.94;;;6.88;77.87
84245;BME280;74383;44.552;18.100;2024-02-21T05:51:37;100673.78;;;6.90;78.04
84245;BME280;74383;44.552;18.100;2024-02-21T05:54:02;100675.78;;;6.88;78.14
84245;BME280;74383;44.552;18.100;2024-02-21T05:56:28;100680.38;;;6.86;77.95
84245;BME280;74383;44.552;18.100;2024-02-21T05:58:54;100678.72;;;6.93;78.26
84245;BME280;74383;44.552;18.100;2024-02-21T06:01:19;100676.41;;;6.90;78.11
84245;BME280;74383;44.552;18.100;2024-02-21T06:03:48;100681.38;;;6.93;78.28
84245;BME280;74383;44.552;18.100;2024-02-21T06:06:14;100684.34;;;6.90;78.18
84245;BME280;74383;44.552;18.100;2024-02-21T06:08:42;100686.97;;;6.98;78.80
84245;BME280;74383;44.552;18.100;2024-02-21T06:11:08;100678.88;;;7.08;78.08
84245;BME280;74383;44.552;18.100;2024-02-21T06:13:38;100687.63;;;7.08;77.67
84245;BME280;74383;44.552;18.100;2024-02-21T06:16:05;100686.66;;;7.09;77.26
84245;BME280;74383;44.552;18.100;2024-02-21T06:18:31;100693.88;;;7.07;77.75
84245;BME280;74383;44.552;18.100;2024-02-21T06:20:57;100689.28;;;7.09;77.51
84245;BME280;74383;44.552;18.100;2024-02-21T06:23:24;100697.34;;;7.08;77.32
84245;BME280;74383;44.552;18.100;2024-02-21T06:25:50;100694.72;;;7.08;77.55
84245;BME280;74383;44.552;18.100;2024-02-21T06:28:16;100701.16;;;6.97;77.70
84245;BME280;74383;44.552;18.100;2024-02-21T06:30:43;100696.69;;;6.98;78.21
84245;BME280;74383;44.552;18.100;2024-02-21T06:33:10;100700.16;;;7.06;78.06
84245;BME280;74383;44.552;18.100;2024-02-21T06:35:36;100698.00;;;7.10;77.72
84245;BME280;74383;44.552;18.100;2024-02-21T06:38:01;100695.53;;;7.16;77.18
84245;BME280;74383;44.552;18.100;2024-02-21T06:40:28;100701.47;;;7.18;77.33
84245;BME280;74383;44.552;18.100;2024-02-21T06:42:54;100705.59;;;7.13;77.80
84245;BME280;74383;44.552;18.100;2024-02-21T06:45:19;100712.69;;;7.04;78.29
84245;BME280;74383;44.552;18.100;2024-02-21T06:47:51;100702.97;;;6.81;79.68
84245;BME280;74383;44.552;18.100;2024-02-21T06:50:18;100707.25;;;6.82;79.85
84245;BME280;74383;44.552;18.100;2024-02-21T06:52:44;100705.13;;;6.85;79.70
84245;BME280;74383;44.552;18.100;2024-02-21T06:55:10;100713.03;;;6.93;79.45
84245;BME280;74383;44.552;18.100;2024-02-21T06:57:35;100724.75;;;6.99;79.45
84245;BME280;74383;44.552;18.100;2024-02-21T07:00:01;100729.19;;;6.98;79.53
84245;BME280;74383;44.552;18.100;2024-02-21T07:02:26;100727.53;;;7.21;79.34
84245;BME280;74383;44.552;18.100;2024-02-21T07:04:52;100734.13;;;7.25;79.27
84245;BME280;74383;44.552;18.100;2024-02-21T07:07:17;100738.09;;;7.30;79.00
84245;BME280;74383;44.552;18.100;2024-02-21T07:09:43;100733.28;;;7.25;78.87
84245;BME280;74383;44.552;18.100;2024-02-21T07:12:09;100738.59;;;7.33;78.65
84245;BME280;74383;44.552;18.100;2024-02-21T07:14:36;100744.19;;;7.38;78.65
84245;BME280;74383;44.552;18.100;2024-02-21T07:17:02;100739.06;;;7.37;77.93
84245;BME280;74383;44.552;18.100;2024-02-21T07:19:28;100738.72;;;7.40;77.84
84245;BME280;74383;44.552;18.100;2024-02-21T07:21:54;100738.38;;;7.43;77.53
84245;BME280;74383;44.552;18.100;2024-02-21T07:24:19;100731.44;;;7.50;77.62
84245;BME280;74383;44.552;18.100;2024-02-21T07:26:45;100732.91;;;7.52;77.93
84245;BME280;74383;44.552;18.100;2024-02-21T07:29:11;100730.13;;;7.54;77.89
84245;BME280;74383;44.552;18.100;2024-02-21T07:31:43;100722.22;;;7.54;77.87
84245;BME280;74383;44.552;18.100;2024-02-21T07:34:10;100723.16;;;7.61;77.70
84245;BME280;74383;44.552;18.100;2024-02-21T07:36:36;100721.88;;;7.57;77.66
84245;BME280;74383;44.552;18.100;2024-02-21T07:39:05;100717.63;;;7.32;78.04
84245;BME280;74383;44.552;18.100;2024-02-21T07:41:31;100717.59;;;7.40;78.51
84245;BME280;74383;44.552;18.100;2024-02-21T07:43:57;100713.81;;;7.42;79.05
84245;BME280;74383;44.552;18.100;2024-02-21T07:46:23;100720.84;;;7.58;78.38
84245;BME280;74383;44.552;18.100;2024-02-21T07:48:49;100718.06;;;7.59;77.22
84245;BME280;74383;44.552;18.100;2024-02-21T07:51:15;100718.84;;;7.68;77.53
84245;BME280;74383;44.552;18.100;2024-02-21T07:53:43;100716.19;;;7.76;77.35
84245;BME280;74383;44.552;18.100;2024-02-21T07:56:13;100717.16;;;7.83;76.67
84245;BME280;74383;44.552;18.100;2024-02-21T07:58:40;100714.16;;;7.86;76.86
84245;BME280;74383;44.552;18.100;2024-02-21T08:01:05;100718.63;;;7.86;76.24
84245;BME280;74383;44.552;18.100;2024-02-21T08:03:31;100715.47;;;7.90;76.98
84245;BME280;74383;44.552;18.100;2024-02-21T08:05:57;100713.50;;;7.92;77.26
84245;BME280;74383;44.552;18.100;2024-02-21T08:08:22;100717.94;;;7.92;77.25
84245;BME280;74383;44.552;18.100;2024-02-21T08:10:51;100716.03;;;7.77;78.56
84245;BME280;74383;44.552;18.100;2024-02-21T08:13:17;100720.47;;;7.77;78.54
84245;BME280;74383;44.552;18.100;2024-02-21T08:15:42;100724.44;;;7.73;78.84
84245;BME280;74383;44.552;18.100;2024-02-21T08:18:08;100712.78;;;7.59;79.42
84245;BME280;74383;44.552;18.100;2024-02-21T08:20:34;100716.75;;;7.55;80.03
84245;BME280;74383;44.552;18.100;2024-02-21T08:23:01;100722.31;;;7.68;79.10
84245;BME280;74383;44.552;18.100;2024-02-21T08:25:26;100720.34;;;7.70;79.42
84245;BME280;74383;44.552;18.100;2024-02-21T08:27:57;100714.03;;;7.79;79.16
84245;BME280;74383;44.552;18.100;2024-02-21T08:30:23;100719.13;;;7.89;78.44
84245;BME280;74383;44.552;18.100;2024-02-21T08:32:48;100723.84;;;8.02;78.25
84245;BME280;74383;44.552;18.100;2024-02-21T08:35:14;100722.00;;;8.10;77.85
84245;BME280;74383;44.552;18.100;2024-02-21T08:37:40;100714.66;;;8.20;77.42
84245;BME280;74383;44.552;18.100;2024-02-21T08:40:06;100709.34;;;8.28;77.19
84245;BME280;74383;44.552;18.100;2024-02-21T08:42:39;100718.81;;;8.54;75.93
84245;BME280;74383;44.552;18.100;2024-02-21T08:45:04;100704.50;;;8.63;74.90
84245;BME280;74383;44.552;18.100;2024-02-21T08:47:30;100708.22;;;8.76;74.77
84245;BME280;74383;44.552;18.100;2024-02-21T08:49:56;100694.94;;;8.84;73.86
84245;BME280;74383;44.552;18.100;2024-02-21T08:52:21;100696.94;;;8.97;73.37
84245;BME280;74383;44.552;18.100;2024-02-21T08:54:47;100694.88;;;9.07;73.56
84245;BME280;74383;44.552;18.100;2024-02-21T08:57:12;100697.03;;;9.26;72.07
84245;BME280;74383;44.552;18.100;2024-02-21T08:59:41;100700.78;;;9.32;73.27
84245;BME280;74383;44.552;18.100;2024-02-21T09:02:06;100711.28;;;9.40;73.00
84245;BME280;74383;44.552;18.100;2024-02-21T09:04:34;100711.41;;;9.46;71.82
84245;BME280;74383;44.552;18.100;2024-02-21T09:06:59;100708.28;;;9.58;71.72
84245;BME280;74383;44.552;18.100;2024-02-21T09:09:25;100703.34;;;9.69;70.97
84245;BME280;74383;44.552;18.100;2024-02-21T09:11:51;100701.25;;;9.79;70.10
84245;BME280;74383;44.552;18.100;2024-02-21T09:14:17;100697.22;;;9.83;70.21
84245;BME280;74383;44.552;18.100;2024-02-21T09:16:43;100697.66;;;9.87;71.12
84245;BME280;74383;44.552;18.100;2024-02-21T09:19:09;100695.53;;;10.12;70.33
84245;BME280;74383;44.552;18.100;2024-02-21T09:21:39;100695.69;;;10.25;69.63
84245;BME280;74383;44.552;18.100;2024-02-21T09:24:05;100696.28;;;10.20;69.84
84245;BME280;74383;44.552;18.100;2024-02-21T09:26:31;100695.31;;;10.28;69.41
84245;BME280;74383;44.552;18.100;2024-02-21T09:28:57;100695.28;;;10.42;69.75
84245;BME280;74383;44.552;18.100;2024-02-21T09:31:23;100700.56;;;10.57;68.72
84245;BME280;74383;44.552;18.100;2024-02-21T09:33:48;100696.44;;;10.19;66.46
84245;BME280;74383;44.552;18.100;2024-02-21T09:36:14;100692.13;;;10.32;65.90
84245;BME280;74383;44.552;18.100;2024-02-21T09:38:40;100687.91;;;10.38;66.25
84245;BME280;74383;44.552;18.100;2024-02-21T09:41:16;100691.19;;;10.61;65.15
84245;BME280;74383;44.552;18.100;2024-02-21T09:43:46;100687.91;;;10.59;65.44
84245;BME280;74383;44.552;18.100;2024-02-21T09:46:16;100686.09;;;10.81;63.74
84245;BME280;74383;44.552;18.100;2024-02-21T09:51:23;100672.13;;;11.00;61.71
84245;BME280;74383;44.552;18.100;2024-02-21T09:53:50;100670.97;;;11.09;62.17
84245;BME280;74383;44.552;18.100;2024-02-21T09:56:16;100673.97;;;11.55;60.99
84245;BME280;74383;44.552;18.100;2024-02-21T09:58:42;100671.34;;;12.02;61.91
84245;BME280;74383;44.552;18.100;2024-02-21T10:01:08;100673.44;;;12.20;60.02
84245;BME280;74383;44.552;18.100;2024-02-21T10:03:35;100683.34;;;12.46;59.65
84245;BME280;74383;44.552;18.100;2024-02-21T10:06:00;100679.31;;;12.82;58.03
84245;BME280;74383;44.552;18.100;2024-02-21T10:08:26;100667.81;;;13.28;56.79
84245;BME280;74383;44.552;18.100;2024-02-21T10:10:52;100658.63;;;13.17;54.53
84245;BME280;74383;44.552;18.100;2024-02-21T10:13:25;100660.44;;;13.30;53.41
84245;BME280;74383;44.552;18.100;2024-02-21T10:16:01;100657.91;;;13.48;53.83
84245;BME280;74383;44.552;18.100;2024-02-21T10:18:28;100654.28;;;13.36;50.62
84245;BME280;74383;44.552;18.100;2024-02-21T10:21:04;100655.88;;;13.57;50.04
84245;BME280;74383;44.552;18.100;2024-02-21T10:23:46;100648.97;;;13.87;50.66
84245;BME280;74383;44.552;18.100;2024-02-21T10:26:12;100651.63;;;13.87;47.95
84245;BME280;74383;44.552;18.100;2024-02-21T10:28:38;100639.94;;;14.32;48.22
84245;BME280;74383;44.552;18.100;2024-02-21T10:31:11;100627.78;;;14.43;46.99
84245;BME280;74383;44.552;18.100;2024-02-21T10:33:37;100623.25;;;14.68;45.47
84245;BME280;74383;44.552;18.100;2024-02-21T10:36:07;100616.59;;;14.77;44.61
84245;BME280;74383;44.552;18.100;2024-02-21T10:38:33;100606.22;;;15.30;46.18
84245;BME280;74383;44.552;18.100;2024-02-21T10:40:59;100597.41;;;14.62;45.34
84245;BME280;74383;44.552;18.100;2024-02-21T10:43:30;100600.53;;;14.28;44.83
84245;BME280;74383;44.552;18.100;2024-02-21T10:46:03;100603.50;;;14.44;44.79
84245;BME280;74383;44.552;18.100;2024-02-21T10:48:42;100585.50;;;15.26;44.94
84245;BME280;74383;44.552;18.100;2024-02-21T10:51:17;100573.13;;;15.49;43.84
84245;BME280;74383;44.552;18.100;2024-02-21T10:54:02;100569.84;;;15.95;43.80
84245;BME280;74383;44.552;18.100;2024-02-21T10:56:31;100559.44;;;16.17;42.51
84245;BME280;74383;44.552;18.100;2024-02-21T10:59:05;100560.84;;;15.90;41.10
84245;BME280;74383;44.552;18.100;2024-02-21T11:01:31;100549.53;;;16.18;41.87
84245;BME280;74383;44.552;18.100;2024-02-21T11:04:02;100546.88;;;15.58;40.77
84245;BME280;74383;44.552;18.100;2024-02-21T11:06:29;100544.69;;;16.38;41.80
84245;BME280;74383;44.552;18.100;2024-02-21T11:09:07;100535.91;;;16.95;40.75
84245;BME280;74383;44.552;18.100;2024-02-21T11:11:54;100536.06;;;17.17;39.37
84245;BME280;74383;44.552;18.100;2024-02-21T11:14:21;100538.03;;;15.57;38.26
84245;BME280;74383;44.552;18.100;2024-02-21T11:16:47;100527.50;;;15.74;41.28
84245;BME280;74383;44.552;18.100;2024-02-21T11:19:20;100526.69;;;16.91;40.87
84245;BME280;74383;44.552;18.100;2024-02-21T11:21:45;100523.41;;;16.54;38.22
84245;BME280;74383;44.552;18.100;2024-02-21T11:24:13;100507.63;;;16.11;38.67
84245;BME280;74383;44.552;18.100;2024-02-21T11:26:40;100501.47;;;17.04;39.65
84245;BME280;74383;44.552;18.100;2024-02-21T11:29:08;100494.97;;;16.53;37.51
84245;BME280;74383;44.552;18.100;2024-02-21T11:31:43;100503.75;;;16.07;39.60
84245;BME280;74383;44.552;18.100;2024-02-21T11:34:13;100492.66;;;15.92;40.63
84245;BME280;74383;44.552;18.100;2024-02-21T11:36:49;100488.53;;;15.78;41.33
84245;BME280;74383;44.552;18.100;2024-02-21T11:39:19;100484.38;;;15.34;40.46
84245;BME280;74383;44.552;18.100;2024-02-21T11:41:48;100485.75;;;15.25;40.19
84245;BME280;74383;44.552;18.100;2024-02-21T11:44:13;100482.34;;;15.66;40.21
84245;BME280;74383;44.552;18.100;2024-02-21T11:46:39;100481.69;;;16.35;40.60
84245;BME280;74383;44.552;18.100;2024-02-21T11:49:05;100478.66;;;16.43;38.74
84245;BME280;74383;44.552;18.100;2024-02-21T11:51:31;100472.56;;;16.94;39.49
84245;BME280;74383;44.552;18.100;2024-02-21T11:53:57;100461.97;;;17.39;37.41
84245;BME280;74383;44.552;18.100;2024-02-21T11:56:23;100473.72;;;18.11;37.24
84245;BME280;74383;44.552;18.100;2024-02-21T11:58:49;100463.56;;;18.13;36.66
84245;BME280;74383;44.552;18.100;2024-02-21T12:01:14;100461.63;;;18.59;36.15
84245;BME280;74383;44.552;18.100;2024-02-21T12:03:42;100459.59;;;18.49;34.80
84245;BME280;74383;44.552;18.100;2024-02-21T12:06:08;100461.78;;;18.02;35.12
84245;BME280;74383;44.552;18.100;2024-02-21T12:08:43;100455.47;;;17.23;36.98
84245;BME280;74383;44.552;18.100;2024-02-21T12:11:22;100443.31;;;16.93;38.86
84245;BME280;74383;44.552;18.100;2024-02-21T12:13:59;100449.88;;;16.39;39.43
84245;BME280;74383;44.552;18.100;2024-02-21T12:16:27;100444.56;;;17.02;37.58
84245;BME280;74383;44.552;18.100;2024-02-21T12:18:53;100439.50;;;16.07;36.74
84245;BME280;74383;44.552;18.100;2024-02-21T12:21:19;100436.63;;;16.55;37.89
84245;BME280;74383;44.552;18.100;2024-02-21T12:23:45;100431.19;;;16.90;37.24
84245;BME280;74383;44.552;18.100;2024-02-21T12:26:12;100431.31;;;16.95;37.81
84245;BME280;74383;44.552;18.100;2024-02-21T12:28:37;100433.75;;;15.92;37.00
84245;BME280;74383;44.552;18.100;2024-02-21T12:31:03;100432.22;;;15.73;37.81
84245;BME280;74383;44.552;18.100;2024-02-21T12:33:30;100433.53;;;15.82;38.86
84245;BME280;74383;44.552;18.100;2024-02-21T12:35:56;100426.47;;;15.10;38.93
84245;BME280;74383;44.552;18.100;2024-02-21T12:38:21;100421.69;;;14.82;39.18
84245;BME280;74383;44.552;18.100;2024-02-21T12:40:47;100424.72;;;14.68;40.26
84245;BME280;74383;44.552;18.100;2024-02-21T12:43:13;100415.22;;;14.54;41.08
84245;BME280;74383;44.552;18.100;2024-02-21T12:45:38;100423.66;;;14.32;39.71
84245;BME280;74383;44.552;18.100;2024-02-21T12:48:04;100419.53;;;14.30;40.71